createdAt,value
2023-08-29T00:01:08.438Z,98068.00
2023-08-29T00:03:35.131Z,98063.00
2023-08-29T00:06:03.202Z,98060.00
2023-08-29T00:08:30.295Z,98058.00
2023-08-29T00:10:57.762Z,98056.00
2023-08-29T00:13:25.004Z,98052.00
2023-08-29T00:15:51.860Z,98048.00
2023-08-29T00:18:20.317Z,98053.00
2023-08-29T00:20:46.824Z,98051.00
2023-08-29T00:23:13.644Z,98047.00
2023-08-29T00:25:40.455Z,98051.00
2023-08-29T00:28:08.245Z,98059.00
2023-08-29T00:30:37.991Z,98062.00
2023-08-29T00:33:05.496Z,98060.00
2023-08-29T00:35:32.311Z,98048.00
2023-08-29T00:37:59.675Z,98054.00
2023-08-29T00:40:31.713Z,98050.00
2023-08-29T00:43:01.496Z,98052.00
2023-08-29T00:45:34.181Z,98053.00
2023-08-29T00:48:02.079Z,98058.00
2023-08-29T00:50:29.198Z,98069.00
2023-08-29T00:52:59.479Z,98068.00
2023-08-29T00:55:27.723Z,98069.00
2023-08-29T00:57:57.774Z,98070.00
2023-08-29T01:00:26.189Z,98066.00
2023-08-29T01:02:52.944Z,98077.00
2023-08-29T01:05:21.619Z,98074.00
2023-08-29T01:07:53.729Z,98073.00
2023-08-29T01:10:34.496Z,98070.00
2023-08-29T01:13:23.040Z,98070.00
2023-08-29T01:15:52.788Z,98067.00
2023-08-29T01:18:20.845Z,98061.00
2023-08-29T01:20:50.404Z,98068.00
2023-08-29T01:23:43.933Z,98065.00
2023-08-29T01:26:14.654Z,98059.00
2023-08-29T01:28:43.665Z,98067.00
2023-08-29T01:31:12.033Z,98073.00
2023-08-29T01:33:40.989Z,98071.00
2023-08-29T01:36:08.029Z,98073.00
2023-08-29T01:38:34.766Z,98064.00
2023-08-29T01:41:01.395Z,98064.00
2023-08-29T01:43:27.944Z,98065.00
2023-08-29T01:45:54.559Z,98069.00
2023-08-29T01:48:22.628Z,98062.00
2023-08-29T01:50:49.595Z,98056.00
2023-08-29T01:53:16.459Z,98059.00
2023-08-29T01:55:44.246Z,98056.00
2023-08-29T01:58:12.061Z,98066.00
2023-08-29T02:00:38.992Z,98066.00
2023-08-29T02:03:05.799Z,98056.00
2023-08-29T02:05:32.436Z,98050.00
2023-08-29T02:07:59.368Z,98048.00
2023-08-29T02:10:31.302Z,98052.00
2023-08-29T02:12:57.826Z,98046.00
2023-08-29T02:15:24.366Z,98040.00
2023-08-29T02:17:52.398Z,98034.00
2023-08-29T02:20:18.970Z,98040.00
2023-08-29T02:22:45.790Z,98040.00
2023-08-29T02:25:12.751Z,98032.00
2023-08-29T02:27:39.347Z,98031.00
2023-08-29T02:30:06.661Z,98027.00
2023-08-29T02:32:35.661Z,98023.00
2023-08-29T02:35:04.602Z,98021.00
2023-08-29T02:37:31.527Z,98012.00
2023-08-29T02:39:58.104Z,98011.00
2023-08-29T02:42:24.669Z,98009.00
2023-08-29T02:44:51.179Z,98012.00
2023-08-29T02:47:17.729Z,98012.00
2023-08-29T02:49:44.264Z,98009.00
2023-08-29T02:52:10.884Z,98009.00
2023-08-29T02:54:37.505Z,98012.00
2023-08-29T02:57:05.101Z,98010.00
2023-08-29T02:59:31.771Z,98002.00
2023-08-29T03:01:58.932Z,98002.00
2023-08-29T03:04:25.516Z,98006.00
2023-08-29T03:06:52.665Z,97996.00
2023-08-29T03:09:19.546Z,98004.00
2023-08-29T03:11:46.078Z,98001.00
2023-08-29T03:14:12.655Z,98003.00
2023-08-29T03:16:39.271Z,97997.00
2023-08-29T03:19:06.118Z,98001.00
2023-08-29T03:21:32.779Z,98004.00
2023-08-29T03:23:59.378Z,97998.00
2023-08-29T03:26:25.913Z,98005.00
2023-08-29T03:28:52.425Z,98002.00
2023-08-29T03:31:19.326Z,98006.00
2023-08-29T03:33:46.546Z,98015.00
2023-08-29T03:36:13.209Z,98010.00
2023-08-29T03:38:40.994Z,98013.00
2023-08-29T03:41:08.896Z,98011.00
2023-08-29T03:43:36.805Z,98002.00
2023-08-29T03:46:09.843Z,98010.00
2023-08-29T03:48:37.777Z,98004.00
2023-08-29T03:51:08.060Z,98011.00
2023-08-29T03:53:36.022Z,98005.00
2023-08-29T03:56:04.994Z,98005.00
2023-08-29T03:58:32.402Z,98003.00
2023-08-29T04:01:00.019Z,98003.00
2023-08-29T04:03:26.995Z,98007.00
2023-08-29T04:05:53.851Z,98009.00
2023-08-29T04:08:20.455Z,98005.00
2023-08-29T04:10:47.589Z,98004.00
2023-08-29T04:13:14.407Z,98000.00
2023-08-29T04:15:41.470Z,98001.00
2023-08-29T04:18:11.534Z,97999.00
2023-08-29T04:20:38.481Z,98007.00
2023-08-29T04:23:06.486Z,98003.00
2023-08-29T04:25:35.515Z,98005.00
2023-08-29T04:28:02.109Z,98002.00
2023-08-29T04:30:28.976Z,98001.00
2023-08-29T04:32:56.378Z,97997.00
2023-08-29T04:35:22.905Z,97996.00
2023-08-29T04:37:50.149Z,97994.00
2023-08-29T04:40:18.483Z,97996.00
2023-08-29T04:42:48.669Z,97992.00
2023-08-29T04:45:15.274Z,97991.00
2023-08-29T04:47:42.125Z,97998.00
2023-08-29T04:50:09.196Z,97988.00
2023-08-29T04:52:35.988Z,97987.00
2023-08-29T04:55:03.048Z,97991.00
2023-08-29T04:57:29.676Z,97994.00
2023-08-29T04:59:56.332Z,97986.00
2023-08-29T05:02:22.993Z,97983.00
2023-08-29T05:04:49.718Z,97983.00
2023-08-29T05:07:16.294Z,97985.00
2023-08-29T05:09:43.130Z,97979.00
2023-08-29T05:12:12.013Z,97989.00
2023-08-29T05:14:39.945Z,97992.00
2023-08-29T05:17:09.332Z,97988.00
2023-08-29T05:19:35.918Z,97986.00
2023-08-29T05:22:02.668Z,97990.00
2023-08-29T05:24:29.794Z,97986.00
2023-08-29T05:26:56.361Z,97983.00
2023-08-29T05:29:22.963Z,97977.00
2023-08-29T05:31:49.494Z,97985.00
2023-08-29T05:34:16.168Z,97981.00
2023-08-29T05:36:42.853Z,97978.00
2023-08-29T05:39:09.388Z,97974.00
2023-08-29T05:41:36.252Z,97983.00
2023-08-29T05:44:02.769Z,97985.00
2023-08-29T05:46:29.378Z,97987.00
2023-08-29T05:48:56.023Z,97986.00
2023-08-29T05:51:22.749Z,97993.00
2023-08-29T05:53:49.430Z,97987.00
2023-08-29T05:56:15.961Z,97979.00
2023-08-29T05:58:42.477Z,97978.00
2023-08-29T06:01:10.256Z,97986.00
2023-08-29T06:03:37.558Z,97987.00
2023-08-29T06:06:04.699Z,97989.00
2023-08-29T06:08:34.460Z,97995.00
2023-08-29T06:11:01.761Z,97995.00
2023-08-29T06:13:28.457Z,97993.00
2023-08-29T06:15:55.230Z,97996.00
2023-08-29T06:18:22.013Z,98001.00
2023-08-29T06:20:48.599Z,97999.00
2023-08-29T06:23:15.321Z,97995.00
2023-08-29T06:25:42.553Z,97998.00
2023-08-29T06:28:09.376Z,98002.00
2023-08-29T06:30:37.291Z,98003.00
2023-08-29T06:33:07.521Z,97997.00
2023-08-29T06:35:41.470Z,98005.00
2023-08-29T06:38:08.574Z,98000.00
2023-08-29T06:40:36.157Z,98003.00
2023-08-29T06:43:02.812Z,98004.00
2023-08-29T06:45:29.534Z,98006.00
2023-08-29T06:47:56.158Z,98005.00
2023-08-29T06:50:22.846Z,98004.00
2023-08-29T06:52:49.390Z,98007.00
2023-08-29T06:55:17.234Z,98008.00
2023-08-29T06:57:43.737Z,97991.00
2023-08-29T07:00:12.011Z,98000.00
2023-08-29T07:02:38.988Z,97998.00
2023-08-29T07:05:06.257Z,98000.00
2023-08-29T07:07:32.828Z,98011.00
2023-08-29T07:09:59.433Z,98010.00
2023-08-29T07:12:26.060Z,98009.00
2023-08-29T07:14:52.597Z,97998.00
2023-08-29T07:17:19.154Z,98001.00
2023-08-29T07:19:45.820Z,98011.00
2023-08-29T07:22:23.537Z,98010.00
2023-08-29T07:24:52.440Z,98006.00
2023-08-29T07:27:19.557Z,98014.00
2023-08-29T07:29:46.225Z,98015.00
2023-08-29T07:32:12.845Z,98015.00
2023-08-29T07:34:41.157Z,98024.00
2023-08-29T07:37:08.193Z,98032.00
2023-08-29T07:39:35.613Z,98037.00
2023-08-29T07:42:02.680Z,98035.00
2023-08-29T07:44:30.556Z,98035.00
2023-08-29T07:47:13.509Z,98035.00
2023-08-29T07:49:41.293Z,98039.00
2023-08-29T07:52:08.065Z,98045.00
2023-08-29T07:54:34.766Z,98044.00
2023-08-29T07:57:01.470Z,98044.00
2023-08-29T07:59:28.248Z,98047.00
2023-08-29T08:01:55.364Z,98048.00
2023-08-29T08:04:22.320Z,98048.00
2023-08-29T08:06:49.114Z,98050.00
2023-08-29T08:09:16.461Z,98051.00
2023-08-29T08:11:43.042Z,98049.00
2023-08-29T08:14:09.639Z,98054.00
2023-08-29T08:16:36.202Z,98053.00
2023-08-29T08:19:02.722Z,98063.00
2023-08-29T08:21:29.224Z,98055.00
2023-08-29T08:23:56.237Z,98045.00
2023-08-29T08:26:23.009Z,98055.00
2023-08-29T08:28:50.240Z,98062.00
2023-08-29T08:31:16.984Z,98057.00
2023-08-29T08:33:44.364Z,98060.00
2023-08-29T08:36:11.173Z,98057.00
2023-08-29T08:38:37.704Z,98064.00
2023-08-29T08:41:04.911Z,98057.00
2023-08-29T08:43:32.646Z,98062.00
2023-08-29T08:46:00.029Z,98067.00
2023-08-29T08:48:26.729Z,98070.00
2023-08-29T08:50:53.755Z,98070.00
2023-08-29T08:53:23.663Z,98069.00
2023-08-29T08:55:51.543Z,98070.00
2023-08-29T08:58:19.542Z,98068.00
2023-08-29T09:00:46.212Z,98076.00
2023-08-29T09:03:15.813Z,98069.00
2023-08-29T09:05:43.205Z,98079.00
2023-08-29T09:08:10.095Z,98075.00
2023-08-29T09:10:41.239Z,98075.00
2023-08-29T09:13:16.643Z,98062.00
2023-08-29T09:15:43.788Z,98062.00
2023-08-29T09:18:14.876Z,98071.00
2023-08-29T09:20:44.216Z,98063.00
2023-08-29T09:23:24.527Z,98061.00
2023-08-29T09:25:58.724Z,98069.00
2023-08-29T09:28:30.396Z,98059.00
2023-08-29T09:31:05.018Z,98068.00
2023-08-29T09:33:31.977Z,98059.00
2023-08-29T09:36:01.551Z,98072.00
2023-08-29T09:38:32.857Z,98059.00
2023-08-29T09:40:59.971Z,98067.00
2023-08-29T09:43:28.780Z,98052.00
2023-08-29T09:45:56.383Z,98048.00
2023-08-29T09:48:24.022Z,98056.00
2023-08-29T09:50:52.028Z,98043.00
2023-08-29T09:53:20.476Z,98049.00
2023-08-29T09:55:52.840Z,98046.00
2023-08-29T09:58:24.919Z,98048.00
2023-08-29T10:00:52.762Z,98044.00
2023-08-29T10:03:19.835Z,98047.00
2023-08-29T10:05:46.875Z,98043.00
2023-08-29T10:08:19.381Z,98040.00
2023-08-29T10:10:47.418Z,98040.00
2023-08-29T10:13:16.680Z,98030.00
2023-08-29T10:15:45.452Z,98035.00
2023-08-29T10:18:12.851Z,98030.00
2023-08-29T10:20:44.480Z,98030.00
2023-08-29T10:23:13.443Z,98034.00
2023-08-29T10:25:40.429Z,98028.00
2023-08-29T10:28:12.298Z,98033.00
2023-08-29T10:30:46.294Z,98031.00
2023-08-29T10:33:13.529Z,98031.00
2023-08-29T10:35:40.138Z,98026.00
2023-08-29T10:38:16.667Z,98033.00
2023-08-29T10:40:44.753Z,98031.00
2023-08-29T10:43:23.165Z,98035.00
2023-08-29T10:45:53.606Z,98038.00
2023-08-29T10:48:22.151Z,98036.00
2023-08-29T10:51:23.597Z,98037.00
2023-08-29T10:53:55.514Z,98035.00
2023-08-29T10:56:28.306Z,98029.00
2023-08-29T10:58:56.123Z,98030.00
2023-08-29T11:01:25.430Z,98015.00
2023-08-29T11:03:52.621Z,98017.00
2023-08-29T11:06:20.845Z,98022.00
2023-08-29T11:08:47.867Z,98024.00
2023-08-29T11:11:17.711Z,98014.00
2023-08-29T11:14:07.576Z,98022.00
2023-08-29T11:16:36.286Z,98028.00
2023-08-29T11:19:10.860Z,98028.00
2023-08-29T11:21:37.715Z,98026.00
2023-08-29T11:26:41.972Z,98028.00
2023-08-29T11:29:08.816Z,98034.00
2023-08-29T11:31:46.323Z,98028.00
2023-08-29T11:34:19.071Z,98033.00
2023-08-29T11:36:51.884Z,98038.00
2023-08-29T11:39:22.623Z,98030.00
2023-08-29T11:42:20.035Z,98033.00
2023-08-29T11:45:35.250Z,98030.00
2023-08-29T11:47:24.701Z,98030.00
2023-08-29T11:49:52.770Z,98030.00
2023-08-29T11:52:19.798Z,98025.00
2023-08-29T11:54:54.155Z,98027.00
2023-08-29T11:57:20.913Z,98021.00
2023-08-29T11:59:48.861Z,98027.00
2023-08-29T12:02:19.343Z,98023.00
2023-08-29T12:04:48.829Z,98021.00
2023-08-29T12:07:16.945Z,98023.00
2023-08-29T12:09:45.713Z,98027.00
2023-08-29T12:12:29.267Z,98025.00
2023-08-29T12:14:56.159Z,98021.00
2023-08-29T12:17:24.143Z,98021.00
2023-08-29T12:19:50.894Z,98016.00
2023-08-29T12:22:20.759Z,98017.00
2023-08-29T12:24:56.873Z,98029.00
2023-08-29T12:27:23.447Z,98023.00
2023-08-29T12:29:49.946Z,98032.00
2023-08-29T12:32:17.772Z,98021.00
2023-08-29T12:34:45.710Z,98014.00
2023-08-29T12:37:15.362Z,98008.00
2023-08-29T12:39:41.886Z,98005.00
2023-08-29T12:42:08.490Z,98002.00
2023-08-29T12:44:35.101Z,97997.00
2023-08-29T12:47:01.614Z,97995.00
2023-08-29T12:49:28.151Z,97995.00
2023-08-29T12:51:54.760Z,97988.00
2023-08-29T12:54:21.252Z,97988.00
2023-08-29T12:56:47.752Z,97993.00
2023-08-29T12:59:14.336Z,97986.00
2023-08-29T13:01:40.991Z,97982.00
2023-08-29T13:04:07.632Z,97986.00
2023-08-29T13:06:34.174Z,97992.00
2023-08-29T13:09:00.725Z,97990.00
2023-08-29T13:11:27.227Z,97986.00
2023-08-29T13:13:53.746Z,97986.00
2023-08-29T13:16:20.318Z,97994.00
2023-08-29T13:18:46.874Z,97990.00
2023-08-29T13:21:13.367Z,97995.00
2023-08-29T13:23:39.881Z,98001.00
2023-08-29T13:26:06.404Z,98001.00
2023-08-29T13:28:32.920Z,98001.00
2023-08-29T13:31:00.036Z,98010.00
2023-08-29T13:33:26.639Z,98013.00
2023-08-29T13:35:53.195Z,98016.00
2023-08-29T13:38:19.711Z,98018.00
2023-08-29T13:40:46.818Z,98025.00
2023-08-29T13:43:13.399Z,98018.00
2023-08-29T13:45:39.978Z,98021.00
2023-08-29T13:48:07.203Z,98009.00
2023-08-29T13:50:34.145Z,98009.00
2023-08-29T13:53:00.753Z,98010.00
2023-08-29T13:55:27.590Z,98003.00
2023-08-29T13:57:54.193Z,98005.00
2023-08-29T14:00:21.625Z,98001.00
2023-08-29T14:02:48.521Z,98007.00
2023-08-29T14:05:32.473Z,98003.00
2023-08-29T14:07:59.522Z,98009.00
2023-08-29T14:10:26.173Z,98004.00
2023-08-29T14:12:53.275Z,98005.00
2023-08-29T14:15:19.836Z,98010.00
2023-08-29T14:17:46.483Z,98005.00
2023-08-29T14:20:13.074Z,98004.00
2023-08-29T14:22:39.747Z,97999.00
2023-08-29T14:25:06.645Z,97998.00
2023-08-29T14:27:33.292Z,97999.00
2023-08-29T14:29:59.833Z,97992.00
2023-08-29T14:32:27.249Z,98002.00
2023-08-29T14:34:53.791Z,98000.00
2023-08-29T14:37:20.292Z,97993.00
2023-08-29T14:39:48.016Z,97994.00
2023-08-29T14:42:14.896Z,97992.00
2023-08-29T14:44:41.436Z,97985.00
2023-08-29T14:47:08.598Z,97988.00
2023-08-29T14:49:36.626Z,97991.00
2023-08-29T14:52:03.735Z,97989.00
2023-08-29T14:54:30.351Z,97980.00
2023-08-29T14:56:56.852Z,97985.00
2023-08-29T14:59:23.437Z,97982.00
2023-08-29T15:01:49.977Z,97976.00
2023-08-29T15:04:18.262Z,97976.00
2023-08-29T15:06:44.897Z,97981.00
2023-08-29T15:09:11.534Z,97973.00
2023-08-29T15:11:38.409Z,97972.00
2023-08-29T15:14:05.351Z,97970.00
2023-08-29T15:16:31.961Z,97976.00
2023-08-29T15:18:58.683Z,97977.00
2023-08-29T15:21:25.373Z,97964.00
2023-08-29T15:23:51.953Z,97968.00
2023-08-29T15:26:18.554Z,97979.00
2023-08-29T15:28:45.089Z,97972.00
2023-08-29T15:31:11.745Z,97983.00
2023-08-29T15:33:39.870Z,97983.00
2023-08-29T15:36:06.546Z,97983.00
2023-08-29T15:38:33.093Z,97980.00
2023-08-29T15:41:00.105Z,97984.00
2023-08-29T15:43:26.656Z,97986.00
2023-08-29T15:45:53.491Z,97985.00
2023-08-29T15:48:20.215Z,97983.00
2023-08-29T15:50:47.487Z,97993.00
2023-08-29T15:53:15.060Z,97997.00
2023-08-29T15:55:42.850Z,97989.00
2023-08-29T15:58:09.862Z,98001.00
2023-08-29T16:00:38.031Z,98003.00
2023-08-29T16:03:05.193Z,97999.00
2023-08-29T16:05:31.808Z,98007.00
2023-08-29T16:07:58.402Z,98005.00
2023-08-29T16:10:25.074Z,98001.00
2023-08-29T16:12:51.594Z,97998.00
2023-08-29T16:15:18.271Z,97997.00
2023-08-29T16:17:44.889Z,98002.00
2023-08-29T16:20:11.850Z,98000.00
2023-08-29T16:22:39.109Z,98007.00
2023-08-29T16:25:06.629Z,98011.00
2023-08-29T16:27:36.373Z,97996.00
2023-08-29T16:30:08.444Z,98002.00
2023-08-29T16:32:35.935Z,98002.00
2023-08-29T16:35:02.876Z,98001.00
2023-08-29T16:37:29.780Z,97996.00
2023-08-29T16:39:56.630Z,98004.00
2023-08-29T16:42:26.643Z,98008.00
2023-08-29T16:44:53.269Z,98004.00
2023-08-29T16:47:20.120Z,98007.00
2023-08-29T16:49:46.701Z,98021.00
2023-08-29T16:52:13.308Z,98022.00
2023-08-29T16:54:39.813Z,98021.00
2023-08-29T16:57:06.454Z,98023.00
2023-08-29T16:59:59.096Z,98022.00
2023-08-29T17:02:26.524Z,98023.00
2023-08-29T17:04:55.135Z,98016.00
2023-08-29T17:07:22.447Z,98027.00
2023-08-29T17:09:49.045Z,98027.00
2023-08-29T17:12:19.977Z,98025.00
2023-08-29T17:14:46.700Z,98025.00
2023-08-29T17:17:13.714Z,98029.00
2023-08-29T17:19:41.066Z,98033.00
2023-08-29T17:22:07.666Z,98031.00
2023-08-29T17:24:34.683Z,98040.00
2023-08-29T17:27:01.457Z,98041.00
2023-08-29T17:29:28.057Z,98036.00
2023-08-29T17:31:54.688Z,98034.00
2023-08-29T17:34:22.710Z,98037.00
2023-08-29T17:36:49.966Z,98039.00
2023-08-29T17:39:16.507Z,98037.00
2023-08-29T17:41:43.260Z,98042.00
2023-08-29T17:44:09.873Z,98037.00
2023-08-29T17:46:36.457Z,98035.00
2023-08-29T17:49:03.768Z,98037.00
2023-08-29T17:51:30.269Z,98036.00
2023-08-29T17:53:56.796Z,98040.00
2023-08-29T17:56:23.575Z,98034.00
2023-08-29T17:58:52.011Z,98040.00
2023-08-29T18:01:19.086Z,98032.00
2023-08-29T18:03:46.187Z,98038.00
2023-08-29T18:06:24.677Z,98029.00
2023-08-29T18:08:53.772Z,98033.00
2023-08-29T18:11:20.854Z,98038.00
2023-08-29T18:13:47.468Z,98035.00
2023-08-29T18:16:14.131Z,98042.00
2023-08-29T18:18:40.757Z,98049.00
2023-08-29T18:21:08.624Z,98049.00
2023-08-29T18:23:36.098Z,98054.00
2023-08-29T18:26:07.040Z,98049.00
2023-08-29T18:28:34.466Z,98054.00
2023-08-29T18:31:01.847Z,98048.00
2023-08-29T18:33:28.716Z,98051.00
2023-08-29T18:35:55.325Z,98052.00
2023-08-29T18:38:22.274Z,98051.00
2023-08-29T18:40:48.824Z,98053.00
2023-08-29T18:43:16.077Z,98056.00
2023-08-29T18:45:43.530Z,98056.00
2023-08-29T18:48:10.339Z,98055.00
2023-08-29T18:50:37.270Z,98061.00
2023-08-29T18:53:04.794Z,98062.00
2023-08-29T18:55:31.332Z,98069.00
2023-08-29T18:58:00.884Z,98061.00
2023-08-29T19:00:27.993Z,98062.00
2023-08-29T19:02:55.901Z,98055.00
2023-08-29T19:05:22.897Z,98065.00
2023-08-29T19:07:49.856Z,98067.00
2023-08-29T19:10:16.613Z,98067.00
2023-08-29T19:12:45.459Z,98065.00
2023-08-29T19:15:12.067Z,98075.00
2023-08-29T19:17:40.184Z,98073.00
2023-08-29T19:20:07.274Z,98074.00
2023-08-29T19:22:34.354Z,98070.00
2023-08-29T19:25:00.884Z,98071.00
2023-08-29T19:27:29.078Z,98062.00
2023-08-29T19:29:55.770Z,98065.00
2023-08-29T19:32:22.751Z,98066.00
2023-08-29T19:34:49.383Z,98074.00
2023-08-29T19:37:17.012Z,98075.00
2023-08-29T19:39:43.606Z,98079.00
2023-08-29T19:42:10.146Z,98079.00
2023-08-29T19:44:36.738Z,98072.00
2023-08-29T19:47:06.428Z,98072.00
2023-08-29T19:49:42.896Z,98060.00
2023-08-29T19:52:09.553Z,98064.00
2023-08-29T19:54:36.171Z,98062.00
2023-08-29T19:57:03.033Z,98070.00
2023-08-29T19:59:30.752Z,98061.00
2023-08-29T20:01:57.481Z,98066.00
2023-08-29T20:04:24.013Z,98059.00
2023-08-29T20:06:50.608Z,98077.00
2023-08-29T20:09:17.204Z,98067.00
2023-08-29T20:11:45.142Z,98073.00
2023-08-29T20:14:13.657Z,98062.00
2023-08-29T20:16:40.272Z,98063.00
2023-08-29T20:19:06.972Z,98059.00
2023-08-29T20:21:33.592Z,98067.00
2023-08-29T20:24:02.895Z,98060.00
2023-08-29T20:26:31.242Z,98057.00
2023-08-29T20:29:00.195Z,98049.00
2023-08-29T20:31:26.820Z,98052.00
2023-08-29T20:33:53.425Z,98048.00
2023-08-29T20:36:20.093Z,98058.00
2023-08-29T20:38:46.613Z,98052.00
2023-08-29T20:41:13.131Z,98047.00
2023-08-29T20:43:39.678Z,98050.00
2023-08-29T20:46:06.237Z,98050.00
2023-08-29T20:48:32.769Z,98041.00
2023-08-29T20:51:04.334Z,98045.00
2023-08-29T20:53:33.126Z,98045.00
2023-08-29T20:55:59.799Z,98050.00
2023-08-29T20:58:26.457Z,98047.00
2023-08-29T21:01:00.774Z,98044.00
2023-08-29T21:03:30.164Z,98047.00
2023-08-29T21:05:58.217Z,98038.00
2023-08-29T21:08:26.638Z,98042.00
2023-08-29T21:10:54.063Z,98031.00
2023-08-29T21:13:21.440Z,98036.00
2023-08-29T21:15:48.638Z,98036.00
2023-08-29T21:18:18.763Z,98040.00
2023-08-29T21:20:54.534Z,98033.00
2023-08-29T21:23:21.532Z,98028.00
2023-08-29T21:25:48.520Z,98023.00
2023-08-29T21:28:21.337Z,98023.00
2023-08-29T21:30:47.914Z,98017.00
2023-08-29T21:33:14.607Z,98017.00
2023-08-29T21:35:42.479Z,98004.00
2023-08-29T21:38:10.753Z,98007.00
2023-08-29T21:40:39.057Z,98006.00
2023-08-29T21:43:10.203Z,97999.00
2023-08-29T21:45:38.553Z,98005.00
2023-08-29T21:48:07.109Z,97993.00
2023-08-29T21:50:41.403Z,97987.00
2023-08-29T21:53:11.785Z,97987.00
2023-08-29T21:55:40.094Z,97986.00
2023-08-29T21:58:08.292Z,97988.00
2023-08-29T22:00:35.347Z,97979.00
2023-08-29T22:03:02.926Z,97983.00
2023-08-29T22:05:31.916Z,97981.00
2023-08-29T22:07:59.364Z,97981.00
2023-08-29T22:10:26.572Z,97965.00
2023-08-29T22:12:53.147Z,97975.00
2023-08-29T22:15:20.734Z,97977.00
2023-08-29T22:17:47.666Z,97969.00
2023-08-29T22:20:14.494Z,97972.00
2023-08-29T22:22:43.913Z,97974.00
2023-08-29T22:25:10.963Z,97969.00
2023-08-29T22:27:37.750Z,97966.00
2023-08-29T22:30:06.071Z,97965.00
2023-08-29T22:32:33.532Z,97969.00
2023-08-29T22:35:00.964Z,97971.00
2023-08-29T22:37:27.538Z,97964.00
2023-08-29T22:39:54.633Z,97960.00
2023-08-29T22:42:21.611Z,97962.00
2023-08-29T22:44:48.276Z,97957.00
2023-08-29T22:47:15.130Z,97951.00
2023-08-29T22:49:42.246Z,97956.00
2023-08-29T22:52:09.639Z,97963.00
2023-08-29T22:54:36.995Z,97958.00
2023-08-29T22:57:03.673Z,97965.00
2023-08-29T22:59:30.611Z,97967.00
2023-08-29T23:01:58.717Z,97956.00
2023-08-29T23:04:28.226Z,97960.00
2023-08-29T23:07:05.536Z,97959.00
2023-08-29T23:09:32.798Z,97954.00
2023-08-29T23:12:00.252Z,97952.00
2023-08-29T23:14:28.199Z,97945.00
2023-08-29T23:16:55.025Z,97945.00
2023-08-29T23:19:24.568Z,97948.00
2023-08-29T23:21:51.942Z,97950.00
2023-08-29T23:24:18.637Z,97953.00
2023-08-29T23:26:45.209Z,97945.00
2023-08-29T23:29:12.294Z,97954.00
2023-08-29T23:31:40.876Z,97950.00
2023-08-29T23:34:07.546Z,97949.00
2023-08-29T23:36:35.071Z,97944.00
2023-08-29T23:39:02.077Z,97947.00
2023-08-29T23:41:29.049Z,97952.00
2023-08-29T23:43:55.785Z,97939.00
2023-08-29T23:46:22.458Z,97935.00
2023-08-29T23:48:49.084Z,97942.00
2023-08-29T23:51:15.900Z,97932.00
2023-08-29T23:53:42.542Z,97939.00
2023-08-29T23:56:09.145Z,97937.00
2023-08-29T23:58:35.685Z,97943.00
